Main page
METAR-TAF:

METAR-TAF

Airports :

Sint Maarten, Netherlands Antilles

Princess Juliana International Airport

latitude: 18-03N, longitude: 063-07W, elevation: 4 m

Current weather observation

The report was made 11 hours and 55 minutes ago, at 22:00 UTC
Wind 4 kt from the Southeast
Temperature 28°C
Humidity 70%
Pressure 1016 hPa
Visibility 10 km or more
Few clouds at a height of 2200 ft

METAR: TNCM 212200Z 13004KT 9999 FEW022 28/22 Q1016 A3001 NOSIG

Time: 05:55 (09:55 UTC)

Forecast

The report was made 4 hours and 35 minutes ago, at 05:20 UTC
Forecast valid from 22 at 06 UTC to 23 at 06 UTC
Wind 9 kt from the East
Visibility: 10 km
Scattered clouds at a height of 2000 ft
showers in vicinity
From 22 at 1330 UTC
Wind 12 kt from the East/Southeast
Visibility: 10 km
Few clouds at a height of 2400 ft
From 22 at 2300 UTC
Wind 8 kt from the East
Visibility: 10 km
Few clouds at a height of 1900 ft

TAF: TNCM 220520Z 2206/2306 09009KT P6SM VCSH SCT020 FM221330 11012KT P6SM FEW024 FM222300 09008KT P6SM FEW019

Weather observations and forecasts of more than 4000 airports (METAR and TAF reports).

The available stations are represented by yellow and red dots on the map.

Hover mouse over dot to see the name of the station.

Then click to see weather observations and forecasts.

To change the map : click on the green buttons with a black cross to zoom in, on the green button with a dash to zoom out, or on the green arrows for adjacent maps.


METAR-TAF: